sensor_id;sensor_type;location;lat;lon;timestamp;temperature;humidity
53053;DHT22;38934;52.690;6.184;2022-09-30T00:00:12;10.40;99.90
53053;DHT22;38934;52.690;6.184;2022-09-30T00:02:38;9.70;99.90
53053;DHT22;38934;52.690;6.184;2022-09-30T00:05:04;9.50;99.90
53053;DHT22;38934;52.690;6.184;2022-09-30T00:07:29;9.50;99.90
53053;DHT22;38934;52.690;6.184;2022-09-30T00:09:55;9.80;99.90
53053;DHT22;38934;52.690;6.184;2022-09-30T00:12:22;9.50;99.90
53053;DHT22;38934;52.690;6.184;2022-09-30T00:14:48;9.50;99.90
53053;DHT22;38934;52.690;6.184;2022-09-30T00:17:13;9.50;99.90
53053;DHT22;38934;52.690;6.184;2022-09-30T00:19:39;9.60;99.90
53053;DHT22;38934;52.690;6.184;2022-09-30T00:22:04;9.40;99.90
53053;DHT22;38934;52.690;6.184;2022-09-30T00:24:30;9.50;99.90
53053;DHT22;38934;52.690;6.184;2022-09-30T00:26:55;9.90;99.90
53053;DHT22;38934;52.690;6.184;2022-09-30T00:29:21;9.80;99.90
53053;DHT22;38934;52.690;6.184;2022-09-30T00:31:46;9.30;99.90
53053;DHT22;38934;52.690;6.184;2022-09-30T00:34:12;9.20;99.90
53053;DHT22;38934;52.690;6.184;2022-09-30T00:36:39;9.10;99.90
53053;DHT22;38934;52.690;6.184;2022-09-30T00:39:06;9.20;99.90
53053;DHT22;38934;52.690;6.184;2022-09-30T00:41:32;9.70;99.90
53053;DHT22;38934;52.690;6.184;2022-09-30T00:43:58;9.40;99.90
53053;DHT22;38934;52.690;6.184;2022-09-30T00:46:37;8.80;99.90
53053;DHT22;38934;52.690;6.184;2022-09-30T00:49:17;8.90;99.90
53053;DHT22;38934;52.690;6.184;2022-09-30T00:51:46;8.90;99.90
53053;DHT22;38934;52.690;6.184;2022-09-30T00:54:14;9.80;99.90
53053;DHT22;38934;52.690;6.184;2022-09-30T00:56:41;9.60;99.90
53053;DHT22;38934;52.690;6.184;2022-09-30T00:59:22;8.70;99.90
53053;DHT22;38934;52.690;6.184;2022-09-30T01:01:48;8.60;99.90
53053;DHT22;38934;52.690;6.184;2022-09-30T01:04:14;9.60;99.90
53053;DHT22;38934;52.690;6.184;2022-09-30T01:06:41;8.50;99.90
53053;DHT22;38934;52.690;6.184;2022-09-30T01:09:06;9.10;99.90
53053;DHT22;38934;52.690;6.184;2022-09-30T01:11:32;8.50;99.90
53053;DHT22;38934;52.690;6.184;2022-09-30T01:14:02;8.90;99.90
53053;DHT22;38934;52.690;6.184;2022-09-30T01:19:23;8.40;99.90
53053;DHT22;38934;52.690;6.184;2022-09-30T01:47:16;8.00;99.90
53053;DHT22;38934;52.690;6.184;2022-09-30T01:49:45;7.90;99.90
53053;DHT22;38934;52.690;6.184;2022-09-30T01:52:14;8.00;99.90
53053;DHT22;38934;52.690;6.184;2022-09-30T01:57:51;7.80;99.90
53053;DHT22;38934;52.690;6.184;2022-09-30T02:00:03;7.80;99.90
53053;DHT22;38934;52.690;6.184;2022-09-30T02:02:31;7.80;99.90
53053;DHT22;38934;52.690;6.184;2022-09-30T02:05:02;7.70;99.90
53053;DHT22;38934;52.690;6.184;2022-09-30T02:07:30;7.70;99.90
53053;DHT22;38934;52.690;6.184;2022-09-30T02:09:58;7.70;99.90
53053;DHT22;38934;52.690;6.184;2022-09-30T02:12:26;7.70;99.90
53053;DHT22;38934;52.690;6.184;2022-09-30T02:14:58;7.70;99.90
53053;DHT22;38934;52.690;6.184;2022-09-30T02:17:27;7.60;99.90
53053;DHT22;38934;52.690;6.184;2022-09-30T02:19:58;7.60;99.90
53053;DHT22;38934;52.690;6.184;2022-09-30T02:22:25;7.60;99.90
53053;DHT22;38934;52.690;6.184;2022-09-30T02:24:54;7.60;99.90
53053;DHT22;38934;52.690;6.184;2022-09-30T02:27:36;7.70;99.90
53053;DHT22;38934;52.690;6.184;2022-09-30T02:30:06;7.50;99.90
53053;DHT22;38934;52.690;6.184;2022-09-30T02:32:34;7.50;99.90
53053;DHT22;38934;52.690;6.184;2022-09-30T02:35:07;7.50;99.90
53053;DHT22;38934;52.690;6.184;2022-09-30T02:37:37;7.50;99.90
53053;DHT22;38934;52.690;6.184;2022-09-30T02:40:06;7.40;99.90
53053;DHT22;38934;52.690;6.184;2022-09-30T02:42:35;7.40;99.90
53053;DHT22;38934;52.690;6.184;2022-09-30T02:45:02;7.40;99.90
53053;DHT22;38934;52.690;6.184;2022-09-30T02:50:01;7.40;99.90
53053;DHT22;38934;52.690;6.184;2022-09-30T02:52:35;7.40;99.90
53053;DHT22;38934;52.690;6.184;2022-09-30T03:00:14;7.30;99.90
53053;DHT22;38934;52.690;6.184;2022-09-30T03:02:40;7.30;99.90
53053;DHT22;38934;52.690;6.184;2022-09-30T03:05:07;7.30;99.90
53053;DHT22;38934;52.690;6.184;2022-09-30T03:07:33;7.20;99.90
53053;DHT22;38934;52.690;6.184;2022-09-30T03:09:58;7.20;99.90
53053;DHT22;38934;52.690;6.184;2022-09-30T03:25:22;7.10;99.90
53053;DHT22;38934;52.690;6.184;2022-09-30T03:30:37;7.00;99.90
53053;DHT22;38934;52.690;6.184;2022-09-30T03:35:47;7.00;99.90
53053;DHT22;38934;52.690;6.184;2022-09-30T03:38:27;8.20;99.90
53053;DHT22;38934;52.690;6.184;2022-09-30T03:43:35;6.90;99.90
53053;DHT22;38934;52.690;6.184;2022-09-30T03:48:46;6.90;99.90
53053;DHT22;38934;52.690;6.184;2022-09-30T03:51:12;6.90;99.90
53053;DHT22;38934;52.690;6.184;2022-09-30T03:53:41;6.80;99.90
53053;DHT22;38934;52.690;6.184;2022-09-30T03:56:07;7.00;99.90
53053;DHT22;38934;52.690;6.184;2022-09-30T03:58:32;6.80;99.90
53053;DHT22;38934;52.690;6.184;2022-09-30T04:00:59;6.80;99.90
53053;DHT22;38934;52.690;6.184;2022-09-30T04:03:24;6.70;99.90
53053;DHT22;38934;52.690;6.184;2022-09-30T04:05:52;6.70;99.90
53053;DHT22;38934;52.690;6.184;2022-09-30T04:08:17;6.70;99.90
53053;DHT22;38934;52.690;6.184;2022-09-30T04:10:43;6.60;99.90
53053;DHT22;38934;52.690;6.184;2022-09-30T04:13:09;6.60;99.90
53053;DHT22;38934;52.690;6.184;2022-09-30T04:15:35;6.60;99.90
53053;DHT22;38934;52.690;6.184;2022-09-30T04:18:00;6.50;99.90
53053;DHT22;38934;52.690;6.184;2022-09-30T04:20:26;7.70;99.90
53053;DHT22;38934;52.690;6.184;2022-09-30T04:22:52;6.50;99.90
53053;DHT22;38934;52.690;6.184;2022-09-30T04:25:17;6.50;99.90
53053;DHT22;38934;52.690;6.184;2022-09-30T04:27:43;6.50;99.90
53053;DHT22;38934;52.690;6.184;2022-09-30T04:30:08;6.60;99.90
53053;DHT22;38934;52.690;6.184;2022-09-30T04:32:34;6.40;99.90
53053;DHT22;38934;52.690;6.184;2022-09-30T04:34:59;6.40;99.90
53053;DHT22;38934;52.690;6.184;2022-09-30T04:37:25;6.40;99.90
53053;DHT22;38934;52.690;6.184;2022-09-30T04:39:50;6.30;99.90
53053;DHT22;38934;52.690;6.184;2022-09-30T04:42:16;6.90;99.90
53053;DHT22;38934;52.690;6.184;2022-09-30T04:44:42;6.30;99.90
53053;DHT22;38934;52.690;6.184;2022-09-30T04:47:08;6.30;99.90
53053;DHT22;38934;52.690;6.184;2022-09-30T04:49:33;6.30;99.90
53053;DHT22;38934;52.690;6.184;2022-09-30T04:51:59;6.30;99.90
53053;DHT22;38934;52.690;6.184;2022-09-30T04:54:24;6.20;99.90
53053;DHT22;38934;52.690;6.184;2022-09-30T04:56:50;6.20;99.90
53053;DHT22;38934;52.690;6.184;2022-09-30T04:59:15;6.20;99.90
53053;DHT22;38934;52.690;6.184;2022-09-30T05:01:41;6.20;99.90
53053;DHT22;38934;52.690;6.184;2022-09-30T05:04:08;6.20;99.90
53053;DHT22;38934;52.690;6.184;2022-09-30T05:06:36;6.20;99.90
53053;DHT22;38934;52.690;6.184;2022-09-30T05:09:02;6.20;99.90
53053;DHT22;38934;52.690;6.184;2022-09-30T05:11:27;6.20;99.90
53053;DHT22;38934;52.690;6.184;2022-09-30T05:13:53;6.20;99.90
53053;DHT22;38934;52.690;6.184;2022-09-30T05:16:19;6.20;99.90
53053;DHT22;38934;52.690;6.184;2022-09-30T05:18:46;6.20;99.90
53053;DHT22;38934;52.690;6.184;2022-09-30T05:21:15;6.20;99.90
53053;DHT22;38934;52.690;6.184;2022-09-30T05:23:41;6.20;99.90
53053;DHT22;38934;52.690;6.184;2022-09-30T05:26:06;6.20;99.90
53053;DHT22;38934;52.690;6.184;2022-09-30T05:28:32;6.20;99.90
53053;DHT22;38934;52.690;6.184;2022-09-30T05:30:59;6.20;99.90
53053;DHT22;38934;52.690;6.184;2022-09-30T05:33:25;6.10;99.90
53053;DHT22;38934;52.690;6.184;2022-09-30T05:35:50;6.50;99.90
53053;DHT22;38934;52.690;6.184;2022-09-30T05:38:16;6.10;99.90
53053;DHT22;38934;52.690;6.184;2022-09-30T05:40:41;6.10;99.90
53053;DHT22;38934;52.690;6.184;2022-09-30T05:43:07;6.10;99.90
53053;DHT22;38934;52.690;6.184;2022-09-30T05:45:33;6.60;99.90
53053;DHT22;38934;52.690;6.184;2022-09-30T05:47:58;6.90;99.90
53053;DHT22;38934;52.690;6.184;2022-09-30T05:50:24;6.20;99.90
53053;DHT22;38934;52.690;6.184;2022-09-30T05:52:50;6.20;99.90
53053;DHT22;38934;52.690;6.184;2022-09-30T05:55:16;6.30;99.90
53053;DHT22;38934;52.690;6.184;2022-09-30T05:57:42;6.20;99.90
53053;DHT22;38934;52.690;6.184;2022-09-30T06:00:08;6.30;99.90
53053;DHT22;38934;52.690;6.184;2022-09-30T06:02:34;6.20;99.90
53053;DHT22;38934;52.690;6.184;2022-09-30T06:05:09;6.30;99.90
53053;DHT22;38934;52.690;6.184;2022-09-30T06:07:34;6.30;99.90
53053;DHT22;38934;52.690;6.184;2022-09-30T06:10:00;6.30;99.90
53053;DHT22;38934;52.690;6.184;2022-09-30T06:12:26;6.30;99.90
53053;DHT22;38934;52.690;6.184;2022-09-30T06:14:56;6.30;99.90
53053;DHT22;38934;52.690;6.184;2022-09-30T06:17:21;6.30;99.90
53053;DHT22;38934;52.690;6.184;2022-09-30T06:19:47;6.30;99.90
53053;DHT22;38934;52.690;6.184;2022-09-30T06:22:14;6.40;99.90
53053;DHT22;38934;52.690;6.184;2022-09-30T06:24:40;6.40;99.90
53053;DHT22;38934;52.690;6.184;2022-09-30T06:27:05;6.70;99.90
53053;DHT22;38934;52.690;6.184;2022-09-30T06:29:31;6.50;99.90
53053;DHT22;38934;52.690;6.184;2022-09-30T06:31:56;6.50;99.90
53053;DHT22;38934;52.690;6.184;2022-09-30T06:34:22;6.60;99.90
53053;DHT22;38934;52.690;6.184;2022-09-30T06:36:48;6.60;99.90
53053;DHT22;38934;52.690;6.184;2022-09-30T06:39:13;6.60;99.90
53053;DHT22;38934;52.690;6.184;2022-09-30T06:41:39;6.70;99.90
53053;DHT22;38934;52.690;6.184;2022-09-30T06:44:08;6.70;99.90
53053;DHT22;38934;52.690;6.184;2022-09-30T06:46:34;6.70;99.90
53053;DHT22;38934;52.690;6.184;2022-09-30T06:49:00;6.80;99.90
53053;DHT22;38934;52.690;6.184;2022-09-30T06:51:25;6.80;99.90
53053;DHT22;38934;52.690;6.184;2022-09-30T06:53:51;6.80;99.90
53053;DHT22;38934;52.690;6.184;2022-09-30T06:56:18;6.90;99.90
53053;DHT22;38934;52.690;6.184;2022-09-30T06:58:44;7.00;99.90
53053;DHT22;38934;52.690;6.184;2022-09-30T07:01:10;7.00;99.90
53053;DHT22;38934;52.690;6.184;2022-09-30T07:03:37;7.10;99.90
53053;DHT22;38934;52.690;6.184;2022-09-30T07:06:04;7.10;99.90
53053;DHT22;38934;52.690;6.184;2022-09-30T07:08:30;7.10;99.90
53053;DHT22;38934;52.690;6.184;2022-09-30T07:10:57;7.20;99.90
53053;DHT22;38934;52.690;6.184;2022-09-30T07:13:22;7.20;99.90
53053;DHT22;38934;52.690;6.184;2022-09-30T07:15:48;7.30;99.90
53053;DHT22;38934;52.690;6.184;2022-09-30T07:18:16;7.30;99.90
53053;DHT22;38934;52.690;6.184;2022-09-30T07:20:51;7.40;99.90
53053;DHT22;38934;52.690;6.184;2022-09-30T07:23:17;7.40;99.90
53053;DHT22;38934;52.690;6.184;2022-09-30T07:25:50;7.50;99.90
53053;DHT22;38934;52.690;6.184;2022-09-30T07:28:15;7.50;99.90
53053;DHT22;38934;52.690;6.184;2022-09-30T07:30:41;7.70;99.90
53053;DHT22;38934;52.690;6.184;2022-09-30T07:33:08;7.70;99.90
53053;DHT22;38934;52.690;6.184;2022-09-30T07:35:33;7.70;99.90
53053;DHT22;38934;52.690;6.184;2022-09-30T07:37:59;7.70;99.90
53053;DHT22;38934;52.690;6.184;2022-09-30T07:40:25;8.60;99.90
53053;DHT22;38934;52.690;6.184;2022-09-30T07:42:55;7.80;99.90
53053;DHT22;38934;52.690;6.184;2022-09-30T07:45:22;7.90;99.90
53053;DHT22;38934;52.690;6.184;2022-09-30T07:47:47;7.90;99.90
53053;DHT22;38934;52.690;6.184;2022-09-30T07:50:13;8.00;99.90
53053;DHT22;38934;52.690;6.184;2022-09-30T07:52:40;8.00;99.90
53053;DHT22;38934;52.690;6.184;2022-09-30T07:55:05;8.10;99.90
53053;DHT22;38934;52.690;6.184;2022-09-30T07:57:31;8.20;99.90
53053;DHT22;38934;52.690;6.184;2022-09-30T07:59:57;8.30;99.90
53053;DHT22;38934;52.690;6.184;2022-09-30T08:02:22;8.30;99.90
53053;DHT22;38934;52.690;6.184;2022-09-30T08:04:48;8.40;99.90
53053;DHT22;38934;52.690;6.184;2022-09-30T08:07:14;8.60;99.90
53053;DHT22;38934;52.690;6.184;2022-09-30T08:09:40;8.90;99.90
53053;DHT22;38934;52.690;6.184;2022-09-30T08:12:06;8.60;99.90
53053;DHT22;38934;52.690;6.184;2022-09-30T08:14:32;9.00;99.90
53053;DHT22;38934;52.690;6.184;2022-09-30T08:16:57;8.80;99.90
53053;DHT22;38934;52.690;6.184;2022-09-30T08:19:25;8.80;99.90
53053;DHT22;38934;52.690;6.184;2022-09-30T08:21:51;8.90;99.90
53053;DHT22;38934;52.690;6.184;2022-09-30T08:24:18;8.90;99.90
53053;DHT22;38934;52.690;6.184;2022-09-30T08:26:43;9.10;99.90
53053;DHT22;38934;52.690;6.184;2022-09-30T08:29:09;9.20;99.90
53053;DHT22;38934;52.690;6.184;2022-09-30T08:31:39;9.30;99.90
53053;DHT22;38934;52.690;6.184;2022-09-30T08:34:04;9.50;99.90
53053;DHT22;38934;52.690;6.184;2022-09-30T08:36:30;9.40;99.90
53053;DHT22;38934;52.690;6.184;2022-09-30T08:38:56;9.50;99.90
53053;DHT22;38934;52.690;6.184;2022-09-30T08:41:25;9.30;99.90
53053;DHT22;38934;52.690;6.184;2022-09-30T08:46:45;9.80;99.90
53053;DHT22;38934;52.690;6.184;2022-09-30T08:51:44;10.00;99.90
53053;DHT22;38934;52.690;6.184;2022-09-30T08:54:12;10.10;99.90
53053;DHT22;38934;52.690;6.184;2022-09-30T08:56:38;11.00;99.90
53053;DHT22;38934;52.690;6.184;2022-09-30T08:59:04;10.70;99.90
53053;DHT22;38934;52.690;6.184;2022-09-30T09:01:32;11.00;99.90
53053;DHT22;38934;52.690;6.184;2022-09-30T09:03:58;10.90;99.90
53053;DHT22;38934;52.690;6.184;2022-09-30T09:06:34;10.50;99.90
53053;DHT22;38934;52.690;6.184;2022-09-30T09:17:01;10.90;99.90
53053;DHT22;38934;52.690;6.184;2022-09-30T09:19:38;11.00;99.90
53053;DHT22;38934;52.690;6.184;2022-09-30T09:22:06;11.10;99.90
53053;DHT22;38934;52.690;6.184;2022-09-30T09:26:58;11.30;99.90
53053;DHT22;38934;52.690;6.184;2022-09-30T09:29:31;11.40;99.90
53053;DHT22;38934;52.690;6.184;2022-09-30T09:32:01;11.40;99.90
53053;DHT22;38934;52.690;6.184;2022-09-30T09:34:28;11.60;99.90
53053;DHT22;38934;52.690;6.184;2022-09-30T09:39:56;11.70;99.90
53053;DHT22;38934;52.690;6.184;2022-09-30T09:42:42;11.90;99.90
53053;DHT22;38934;52.690;6.184;2022-09-30T09:47:50;12.00;99.90
53053;DHT22;38934;52.690;6.184;2022-09-30T09:50:17;12.10;99.90
53053;DHT22;38934;52.690;6.184;2022-09-30T09:55:28;12.20;99.90
53053;DHT22;38934;52.690;6.184;2022-09-30T09:58:04;12.40;99.90
53053;DHT22;38934;52.690;6.184;2022-09-30T10:00:30;12.40;99.90
53053;DHT22;38934;52.690;6.184;2022-09-30T10:03:12;12.60;99.90
53053;DHT22;38934;52.690;6.184;2022-09-30T10:05:42;12.80;99.90
53053;DHT22;38934;52.690;6.184;2022-09-30T10:08:18;12.90;99.90
53053;DHT22;38934;52.690;6.184;2022-09-30T10:10:45;13.10;99.90
53053;DHT22;38934;52.690;6.184;2022-09-30T10:13:22;13.20;99.90
53053;DHT22;38934;52.690;6.184;2022-09-30T10:15:48;13.30;99.90
53053;DHT22;38934;52.690;6.184;2022-09-30T10:18:19;13.60;99.90
53053;DHT22;38934;52.690;6.184;2022-09-30T10:20:50;13.70;99.90
53053;DHT22;38934;52.690;6.184;2022-09-30T10:23:26;13.80;99.90
53053;DHT22;38934;52.690;6.184;2022-09-30T10:28:23;14.10;99.90
53053;DHT22;38934;52.690;6.184;2022-09-30T10:30:53;14.30;99.90
53053;DHT22;38934;52.690;6.184;2022-09-30T10:33:20;14.20;99.90
53053;DHT22;38934;52.690;6.184;2022-09-30T10:35:48;14.30;99.90
53053;DHT22;38934;52.690;6.184;2022-09-30T10:38:14;14.60;99.90
53053;DHT22;38934;52.690;6.184;2022-09-30T10:40:39;14.50;99.90
53053;DHT22;38934;52.690;6.184;2022-09-30T10:43:54;15.40;99.90
53053;DHT22;38934;52.690;6.184;2022-09-30T10:46:00;14.40;99.90
53053;DHT22;38934;52.690;6.184;2022-09-30T10:48:28;14.60;99.90
53053;DHT22;38934;52.690;6.184;2022-09-30T10:50:56;14.50;99.90
53053;DHT22;38934;52.690;6.184;2022-09-30T10:53:22;14.60;99.90
53053;DHT22;38934;52.690;6.184;2022-09-30T10:55:48;14.50;99.90
53053;DHT22;38934;52.690;6.184;2022-09-30T11:00:49;14.50;99.90
53053;DHT22;38934;52.690;6.184;2022-09-30T11:03:23;14.50;99.90
53053;DHT22;38934;52.690;6.184;2022-09-30T11:05:49;14.60;99.90
53053;DHT22;38934;52.690;6.184;2022-09-30T11:10:55;14.50;99.90
53053;DHT22;38934;52.690;6.184;2022-09-30T11:18:28;14.50;99.90
53053;DHT22;38934;52.690;6.184;2022-09-30T11:20:59;14.60;99.90
53053;DHT22;38934;52.690;6.184;2022-09-30T11:23:28;14.70;99.90
53053;DHT22;38934;52.690;6.184;2022-09-30T11:33:47;15.30;99.90
53053;DHT22;38934;52.690;6.184;2022-09-30T11:36:50;15.40;99.90
53053;DHT22;38934;52.690;6.184;2022-09-30T11:41:39;15.40;99.90
53053;DHT22;38934;52.690;6.184;2022-09-30T11:47:14;15.60;99.90
53053;DHT22;38934;52.690;6.184;2022-09-30T11:49:53;15.70;99.90
53053;DHT22;38934;52.690;6.184;2022-09-30T11:57:55;15.90;99.90
53053;DHT22;38934;52.690;6.184;2022-09-30T12:00:21;15.80;99.90
53053;DHT22;38934;52.690;6.184;2022-09-30T12:02:52;15.80;99.90
53053;DHT22;38934;52.690;6.184;2022-09-30T12:07:45;15.70;99.90
53053;DHT22;38934;52.690;6.184;2022-09-30T12:10:17;16.00;99.90
53053;DHT22;38934;52.690;6.184;2022-09-30T12:12:46;16.20;99.90
53053;DHT22;38934;52.690;6.184;2022-09-30T12:15:14;16.60;99.90
53053;DHT22;38934;52.690;6.184;2022-09-30T12:18:02;16.50;99.90
53053;DHT22;38934;52.690;6.184;2022-09-30T12:20:35;16.60;99.90
53053;DHT22;38934;52.690;6.184;2022-09-30T12:23:26;16.70;99.90
53053;DHT22;38934;52.690;6.184;2022-09-30T12:25:56;16.60;99.90
53053;DHT22;38934;52.690;6.184;2022-09-30T12:31:11;16.60;99.90
53053;DHT22;38934;52.690;6.184;2022-09-30T12:36:30;16.30;99.90
53053;DHT22;38934;52.690;6.184;2022-09-30T12:49:12;16.60;99.90
53053;DHT22;38934;52.690;6.184;2022-09-30T12:51:43;16.70;99.90
53053;DHT22;38934;52.690;6.184;2022-09-30T12:54:13;16.70;99.90
53053;DHT22;38934;52.690;6.184;2022-09-30T12:56:40;16.70;99.90
53053;DHT22;38934;52.690;6.184;2022-09-30T12:59:07;16.70;99.90
53053;DHT22;38934;52.690;6.184;2022-09-30T13:01:35;16.70;99.90
53053;DHT22;38934;52.690;6.184;2022-09-30T13:06:26;16.60;99.90
53053;DHT22;38934;52.690;6.184;2022-09-30T13:11:31;16.40;99.90
53053;DHT22;38934;52.690;6.184;2022-09-30T13:14:01;16.30;99.90
53053;DHT22;38934;52.690;6.184;2022-09-30T13:19:18;16.40;99.90
53053;DHT22;38934;52.690;6.184;2022-09-30T13:21:44;16.50;99.90
53053;DHT22;38934;52.690;6.184;2022-09-30T13:24:10;16.60;99.90
53053;DHT22;38934;52.690;6.184;2022-09-30T13:26:39;16.70;99.90
53053;DHT22;38934;52.690;6.184;2022-09-30T13:31:31;16.50;99.90
53053;DHT22;38934;52.690;6.184;2022-09-30T13:36:26;16.60;99.90
53053;DHT22;38934;52.690;6.184;2022-09-30T13:41:37;16.60;99.90
53053;DHT22;38934;52.690;6.184;2022-09-30T13:44:08;16.60;99.90
53053;DHT22;38934;52.690;6.184;2022-09-30T13:49:12;16.70;99.90
53053;DHT22;38934;52.690;6.184;2022-09-30T13:51:42;16.60;99.90
53053;DHT22;38934;52.690;6.184;2022-09-30T13:56:52;16.60;99.90
53053;DHT22;38934;52.690;6.184;2022-09-30T14:09:28;16.80;99.90
53053;DHT22;38934;52.690;6.184;2022-09-30T14:12:11;16.80;99.90
53053;DHT22;38934;52.690;6.184;2022-09-30T14:14:54;16.70;99.90
53053;DHT22;38934;52.690;6.184;2022-09-30T14:22:42;16.50;99.90
53053;DHT22;38934;52.690;6.184;2022-09-30T14:25:11;16.40;99.90
53053;DHT22;38934;52.690;6.184;2022-09-30T14:30:13;16.20;99.90
53053;DHT22;38934;52.690;6.184;2022-09-30T14:32:47;16.10;99.90
53053;DHT22;38934;52.690;6.184;2022-09-30T14:35:16;16.10;99.90
53053;DHT22;38934;52.690;6.184;2022-09-30T14:37:53;16.10;99.90
53053;DHT22;38934;52.690;6.184;2022-09-30T14:40:22;16.10;99.90
53053;DHT22;38934;52.690;6.184;2022-09-30T14:42:48;16.20;99.90
53053;DHT22;38934;52.690;6.184;2022-09-30T14:45:18;16.30;99.90
53053;DHT22;38934;52.690;6.184;2022-09-30T14:47:46;16.30;99.90
53053;DHT22;38934;52.690;6.184;2022-09-30T14:50:14;16.30;99.90
53053;DHT22;38934;52.690;6.184;2022-09-30T14:52:43;16.40;99.90
53053;DHT22;38934;52.690;6.184;2022-09-30T14:55:26;16.40;99.90
53053;DHT22;38934;52.690;6.184;2022-09-30T14:57:53;16.30;99.90
53053;DHT22;38934;52.690;6.184;2022-09-30T15:00:30;16.20;99.90
53053;DHT22;38934;52.690;6.184;2022-09-30T15:02:56;16.10;99.90
53053;DHT22;38934;52.690;6.184;2022-09-30T15:05:23;16.20;99.90
53053;DHT22;38934;52.690;6.184;2022-09-30T15:07:49;16.00;99.90
53053;DHT22;38934;52.690;6.184;2022-09-30T15:10:18;15.90;99.90
53053;DHT22;38934;52.690;6.184;2022-09-30T15:12:46;15.80;99.90
53053;DHT22;38934;52.690;6.184;2022-09-30T15:17:49;15.70;99.90
53053;DHT22;38934;52.690;6.184;2022-09-30T15:22:48;15.60;99.90
53053;DHT22;38934;52.690;6.184;2022-09-30T15:25:14;15.50;99.90
53053;DHT22;38934;52.690;6.184;2022-09-30T15:27:40;15.50;99.90
53053;DHT22;38934;52.690;6.184;2022-09-30T15:32:41;15.40;99.90
53053;DHT22;38934;52.690;6.184;2022-09-30T15:35:17;15.40;99.90
53053;DHT22;38934;52.690;6.184;2022-09-30T15:37:45;15.50;99.90
53053;DHT22;38934;52.690;6.184;2022-09-30T15:42:59;15.50;99.90
53053;DHT22;38934;52.690;6.184;2022-09-30T15:45:28;15.70;99.90
53053;DHT22;38934;52.690;6.184;2022-09-30T15:47:55;15.60;99.90
53053;DHT22;38934;52.690;6.184;2022-09-30T15:53:04;15.70;99.90
53053;DHT22;38934;52.690;6.184;2022-09-30T15:55:37;15.70;99.90
53053;DHT22;38934;52.690;6.184;2022-09-30T15:58:25;15.80;99.90
53053;DHT22;38934;52.690;6.184;2022-09-30T16:00:52;15.90;99.90
53053;DHT22;38934;52.690;6.184;2022-09-30T16:03:26;15.90;99.90
53053;DHT22;38934;52.690;6.184;2022-09-30T16:05:53;15.90;99.90
53053;DHT22;38934;52.690;6.184;2022-09-30T16:08:21;15.80;99.90
53053;DHT22;38934;52.690;6.184;2022-09-30T16:10:49;15.90;99.90
53053;DHT22;38934;52.690;6.184;2022-09-30T16:13:16;15.80;99.90
53053;DHT22;38934;52.690;6.184;2022-09-30T16:15:42;15.80;99.90
53053;DHT22;38934;52.690;6.184;2022-09-30T16:18:16;15.70;99.90
53053;DHT22;38934;52.690;6.184;2022-09-30T16:20:54;15.70;99.90
53053;DHT22;38934;52.690;6.184;2022-09-30T16:23:30;15.70;99.90
53053;DHT22;38934;52.690;6.184;2022-09-30T16:28:39;15.50;99.90
53053;DHT22;38934;52.690;6.184;2022-09-30T16:31:05;15.40;99.90
53053;DHT22;38934;52.690;6.184;2022-09-30T16:33:31;15.30;99.90
53053;DHT22;38934;52.690;6.184;2022-09-30T16:35:58;15.20;99.90
53053;DHT22;38934;52.690;6.184;2022-09-30T16:38:23;15.10;99.90
53053;DHT22;38934;52.690;6.184;2022-09-30T16:40:49;14.90;99.90
53053;DHT22;38934;52.690;6.184;2022-09-30T16:43:15;14.90;99.90
53053;DHT22;38934;52.690;6.184;2022-09-30T16:45:41;14.70;99.90
53053;DHT22;38934;52.690;6.184;2022-09-30T16:48:14;14.50;99.90
53053;DHT22;38934;52.690;6.184;2022-09-30T16:50:41;14.40;99.90
53053;DHT22;38934;52.690;6.184;2022-09-30T16:53:07;14.30;99.90
53053;DHT22;38934;52.690;6.184;2022-09-30T16:55:36;14.20;99.90
53053;DHT22;38934;52.690;6.184;2022-09-30T16:58:01;14.30;99.90
53053;DHT22;38934;52.690;6.184;2022-09-30T17:00:29;14.50;99.90
53053;DHT22;38934;52.690;6.184;2022-09-30T17:02:54;14.00;99.90
53053;DHT22;38934;52.690;6.184;2022-09-30T17:05:21;13.80;99.90
53053;DHT22;38934;52.690;6.184;2022-09-30T17:07:50;13.70;99.90
53053;DHT22;38934;52.690;6.184;2022-09-30T17:10:20;13.60;99.90
53053;DHT22;38934;52.690;6.184;2022-09-30T17:12:46;13.60;99.90
53053;DHT22;38934;52.690;6.184;2022-09-30T17:15:12;13.50;99.90
53053;DHT22;38934;52.690;6.184;2022-09-30T17:17:37;14.30;99.90
53053;DHT22;38934;52.690;6.184;2022-09-30T17:20:03;13.40;99.90
53053;DHT22;38934;52.690;6.184;2022-09-30T17:22:28;13.30;99.90
53053;DHT22;38934;52.690;6.184;2022-09-30T17:24:54;14.00;99.90
53053;DHT22;38934;52.690;6.184;2022-09-30T17:27:19;13.60;99.90
53053;DHT22;38934;52.690;6.184;2022-09-30T17:29:45;13.20;99.90
53053;DHT22;38934;52.690;6.184;2022-09-30T17:32:10;13.10;99.90
53053;DHT22;38934;52.690;6.184;2022-09-30T17:34:36;13.10;99.90
53053;DHT22;38934;52.690;6.184;2022-09-30T17:37:01;13.00;99.90
53053;DHT22;38934;52.690;6.184;2022-09-30T17:39:27;13.00;99.90
53053;DHT22;38934;52.690;6.184;2022-09-30T17:41:52;13.00;99.90
53053;DHT22;38934;52.690;6.184;2022-09-30T17:44:36;13.00;99.90
53053;DHT22;38934;52.690;6.184;2022-09-30T17:47:03;12.90;99.90
53053;DHT22;38934;52.690;6.184;2022-09-30T17:49:38;12.80;99.90
53053;DHT22;38934;52.690;6.184;2022-09-30T17:52:03;12.80;99.90
53053;DHT22;38934;52.690;6.184;2022-09-30T17:54:29;12.70;99.90
53053;DHT22;38934;52.690;6.184;2022-09-30T17:56:55;12.70;99.90
53053;DHT22;38934;52.690;6.184;2022-09-30T17:59:21;12.70;99.90
53053;DHT22;38934;52.690;6.184;2022-09-30T18:01:51;12.70;99.90
53053;DHT22;38934;52.690;6.184;2022-09-30T18:04:16;12.60;99.90
53053;DHT22;38934;52.690;6.184;2022-09-30T18:06:43;12.60;99.90
53053;DHT22;38934;52.690;6.184;2022-09-30T18:09:09;12.60;99.90
53053;DHT22;38934;52.690;6.184;2022-09-30T18:11:35;12.60;99.90
53053;DHT22;38934;52.690;6.184;2022-09-30T18:14:00;12.50;99.90
53053;DHT22;38934;52.690;6.184;2022-09-30T18:16:29;12.60;99.90
53053;DHT22;38934;52.690;6.184;2022-09-30T18:18:56;12.50;99.90
53053;DHT22;38934;52.690;6.184;2022-09-30T18:21:22;12.60;99.90
53053;DHT22;38934;52.690;6.184;2022-09-30T18:23:51;12.50;99.90
53053;DHT22;38934;52.690;6.184;2022-09-30T18:26:17;12.50;99.90
53053;DHT22;38934;52.690;6.184;2022-09-30T18:28:42;12.60;99.90
53053;DHT22;38934;52.690;6.184;2022-09-30T18:31:08;12.50;99.90
53053;DHT22;38934;52.690;6.184;2022-09-30T18:33:34;12.50;99.90
53053;DHT22;38934;52.690;6.184;2022-09-30T18:36:00;12.50;99.90
53053;DHT22;38934;52.690;6.184;2022-09-30T18:38:27;12.50;99.90
53053;DHT22;38934;52.690;6.184;2022-09-30T18:40:52;12.50;99.90
53053;DHT22;38934;52.690;6.184;2022-09-30T18:43:19;12.80;99.90
53053;DHT22;38934;52.690;6.184;2022-09-30T18:45:54;12.40;99.90
53053;DHT22;38934;52.690;6.184;2022-09-30T18:48:21;12.40;99.90
53053;DHT22;38934;52.690;6.184;2022-09-30T18:50:46;12.50;99.90
53053;DHT22;38934;52.690;6.184;2022-09-30T18:53:13;12.70;99.90